EZY9PW EIDW-EGPH

Flight info

Callsign EZY9PW
Flight time 0h 36m
Altitude 25000
Route ROTEV3J ROTEV P600 TUNSO
Aircraft A320/M-SDE3FGHIRWY/LB1

Departure

Time 2026-04-26 12:32
Airport Dublin Airport (EIDW)

Arrival

Time 2026-04-26 13:08
Airport Edinburgh Airport (EGPH)
Time Latitude Longitude Altitude Speed Heading
2026-04-26 12:20 53.43014 -6.25008 218 ft 0 kts
2026-04-26 12:24 53.42991 -6.25010 217 ft 4 kts 352°
2026-04-26 12:25 53.42952 -6.24963 216 ft 4 kts 282°
2026-04-26 12:25 53.42950 -6.24948 212 ft 0 kts 275°
2026-04-26 12:27 53.42951 -6.24973 217 ft 9 kts 276°
2026-04-26 12:27 53.42962 -6.25117 211 ft 14 kts 277°
2026-04-26 12:27 53.42997 -6.25286 214 ft 17 kts 302°
2026-04-26 12:28 53.43070 -6.25441 211 ft 19 kts 335°
2026-04-26 12:28 53.43194 -6.25530 214 ft 21 kts 339°
2026-04-26 12:28 53.43336 -6.25633 213 ft 23 kts 337°
2026-04-26 12:28 53.43409 -6.25558 213 ft 6 kts 104°
2026-04-26 12:29 53.43401 -6.25464 215 ft 19 kts 97°
2026-04-26 12:29 53.43388 -6.25188 211 ft 25 kts 94°
2026-04-26 12:29 53.43388 -6.24581 211 ft 24 kts 44°
2026-04-26 12:30 53.43458 -6.24565 213 ft 11 kts 356°
2026-04-26 12:30 53.43518 -6.24610 220 ft 9 kts 315°
2026-04-26 12:30 53.43528 -6.24658 214 ft 0 kts 278°
2026-04-26 12:31 53.43535 -6.24744 216 ft 32 kts 277°
2026-04-26 12:31 53.43584 -6.25617 211 ft 113 kts 275°
2026-04-26 12:31 53.43676 -6.27235 334 ft 159 kts 276°
2026-04-26 12:31 53.43810 -6.29246 778 ft 187 kts 282°
2026-04-26 12:32 53.44374 -6.31251 1546 ft 200 kts 308°
2026-04-26 12:32 53.45310 -6.33074 2623 ft 208 kts 310°
2026-04-26 12:32 53.47878 -6.35301 5189 ft 228 kts 360°
2026-04-26 12:33 53.49497 -6.35202 5729 ft 235 kts
2026-04-26 12:33 53.51138 -6.35068 6087 ft 237 kts
2026-04-26 12:33 53.52791 -6.34909 6231 ft 238 kts
2026-04-26 12:33 53.54511 -6.34441 6279 ft 269 kts
2026-04-26 12:34 53.56404 -6.33935 6952 ft 284 kts
2026-04-26 12:34 53.58377 -6.33417 7987 ft 289 kts
2026-04-26 12:34 53.60388 -6.32897 8859 ft 296 kts
2026-04-26 12:34 53.62436 -6.32372 9163 ft 297 kts
2026-04-26 12:35 53.64482 -6.31847 9247 ft 298 kts
2026-04-26 12:35 53.66511 -6.31309 9264 ft 298 kts 11°
2026-04-26 12:35 53.68565 -6.30406 9665 ft 304 kts 14°
2026-04-26 12:35 53.70584 -6.29494 10629 ft 311 kts 14°
2026-04-26 12:36 53.72759 -6.28521 11054 ft 335 kts 14°
2026-04-26 12:36 53.75061 -6.27475 11696 ft 349 kts 16°
2026-04-26 12:36 53.77341 -6.25948 12562 ft 356 kts 23°
2026-04-26 12:36 53.79623 -6.24228 13477 ft 361 kts 23°
2026-04-26 12:37 53.81929 -6.22482 14363 ft 364 kts 23°
2026-04-26 12:37 53.84230 -6.20747 15176 ft 368 kts 22°
2026-04-26 12:37 53.86575 -6.18982 15991 ft 371 kts 22°
2026-04-26 12:37 53.88953 -6.17192 16782 ft 375 kts 22°
2026-04-26 12:38 53.91357 -6.15380 17570 ft 380 kts 22°
2026-04-26 12:38 53.93779 -6.13546 18337 ft 384 kts 22°
2026-04-26 12:38 53.96236 -6.11682 19031 ft 388 kts 22°
2026-04-26 12:38 53.98722 -6.09799 19702 ft 392 kts 22°
2026-04-26 12:39 54.01225 -6.07901 20364 ft 397 kts 22°
2026-04-26 12:39 54.03734 -6.05984 21042 ft 401 kts 23°
2026-04-26 12:39 54.06280 -6.03966 21725 ft 405 kts 24°
2026-04-26 12:39 54.08831 -6.01882 22399 ft 409 kts 24°
2026-04-26 12:40 54.11411 -5.99743 23074 ft 413 kts 24°
2026-04-26 12:40 54.14014 -5.97580 23740 ft 417 kts 24°
2026-04-26 12:40 54.16643 -5.95399 24290 ft 421 kts 24°
2026-04-26 12:40 54.19291 -5.93207 24798 ft 426 kts 24°
2026-04-26 12:41 54.21979 -5.90992 25168 ft 430 kts 24°
2026-04-26 12:41 54.24691 -5.88758 25264 ft 429 kts 24°
2026-04-26 12:41 54.27377 -5.86545 25282 ft 427 kts 24°
2026-04-26 12:41 54.30050 -5.84342 25281 ft 426 kts 24°
2026-04-26 12:42 54.32718 -5.82137 25281 ft 426 kts 24°
2026-04-26 12:42 54.35385 -5.79927 25279 ft 426 kts 24°
2026-04-26 12:42 54.38050 -5.77716 25282 ft 426 kts 24°
2026-04-26 12:42 54.40724 -5.75492 25278 ft 426 kts 24°
2026-04-26 12:43 54.43362 -5.73292 25280 ft 427 kts 24°
2026-04-26 12:43 54.46032 -5.71060 25279 ft 427 kts 24°
2026-04-26 12:43 54.48706 -5.68827 25277 ft 427 kts 24°
2026-04-26 12:43 54.51374 -5.66595 25275 ft 426 kts 24°
2026-04-26 12:44 54.54046 -5.64359 25275 ft 426 kts 24°
2026-04-26 12:44 54.56715 -5.62126 25285 ft 426 kts 24°
2026-04-26 12:44 54.59321 -5.59663 25283 ft 428 kts 32°
2026-04-26 12:44 54.61680 -5.56520 25249 ft 429 kts 40°
2026-04-26 12:45 54.63915 -5.53134 25020 ft 427 kts 40°
2026-04-26 12:45 54.66140 -5.49756 24786 ft 425 kts 40°
2026-04-26 12:45 54.68326 -5.46438 24551 ft 423 kts 40°
2026-04-26 12:45 54.70529 -5.43090 24316 ft 421 kts 40°
2026-04-26 12:46 54.72727 -5.39750 24076 ft 418 kts 40°
2026-04-26 12:46 54.74909 -5.36433 23842 ft 417 kts 40°
2026-04-26 12:46 54.77078 -5.33126 23565 ft 415 kts 40°
2026-04-26 12:46 54.79241 -5.29822 23287 ft 413 kts 40°
2026-04-26 12:47 54.81390 -5.26533 23017 ft 411 kts 40°
2026-04-26 12:47 54.83535 -5.23243 22746 ft 410 kts 40°
2026-04-26 12:47 54.85671 -5.19962 22480 ft 408 kts 40°
2026-04-26 12:47 54.87804 -5.16832 22214 ft 402 kts 34°
2026-04-26 12:48 54.90152 -5.14295 21774 ft 395 kts 24°
2026-04-26 12:48 54.92602 -5.12199 21275 ft 391 kts 24°
2026-04-26 12:48 54.95039 -5.10108 20776 ft 388 kts 24°
2026-04-26 12:48 54.97452 -5.08024 20282 ft 386 kts 24°
2026-04-26 12:49 54.99849 -5.05947 19778 ft 384 kts 24°
2026-04-26 12:49 55.02238 -5.03872 19267 ft 383 kts 24°
2026-04-26 12:49 55.04620 -5.01800 18753 ft 382 kts 24°
2026-04-26 12:49 55.06998 -4.99725 18191 ft 381 kts 25°
2026-04-26 12:50 55.09223 -4.97221 17668 ft 381 kts 37°
2026-04-26 12:50 55.11103 -4.93984 17168 ft 380 kts 50°
2026-04-26 12:50 55.12554 -4.90151 17011 ft 379 kts 62°
2026-04-26 12:50 55.13645 -4.85973 16801 ft 379 kts 66°
2026-04-26 12:51 55.14697 -4.81766 16586 ft 378 kts 66°
2026-04-26 12:51 55.15733 -4.77614 16374 ft 376 kts 66°
2026-04-26 12:51 55.16778 -4.73417 16145 ft 375 kts 66°
2026-04-26 12:51 55.17813 -4.69244 15956 ft 374 kts 66°
2026-04-26 12:52 55.18858 -4.65019 15727 ft 373 kts 67°
2026-04-26 12:52 55.19874 -4.60884 15518 ft 372 kts 67°
2026-04-26 12:52 55.20892 -4.56734 15302 ft 371 kts 67°
2026-04-26 12:52 55.21906 -4.52594 15086 ft 370 kts 67°
2026-04-26 12:53 55.22920 -4.48455 14876 ft 369 kts 67°
2026-04-26 12:53 55.23927 -4.44341 14665 ft 367 kts 67°
2026-04-26 12:53 55.24933 -4.40228 14445 ft 366 kts 67°
2026-04-26 12:53 55.25938 -4.36114 14247 ft 365 kts 67°
2026-04-26 12:54 55.26932 -4.32024 14029 ft 364 kts 67°
2026-04-26 12:54 55.27921 -4.27947 13810 ft 362 kts 67°
2026-04-26 12:54 55.28911 -4.23889 13606 ft 361 kts 66°
2026-04-26 12:54 55.29958 -4.19888 13418 ft 361 kts 65°
2026-04-26 12:55 55.31014 -4.15904 13229 ft 359 kts 65°
2026-04-26 12:55 55.32071 -4.11929 13043 ft 358 kts 65°
2026-04-26 12:55 55.33127 -4.07965 12861 ft 358 kts 65°
2026-04-26 12:55 55.34195 -4.04030 12679 ft 357 kts 62°
2026-04-26 12:56 55.35498 -4.00325 12462 ft 355 kts 57°
2026-04-26 12:56 55.36855 -3.96722 11965 ft 352 kts 57°
2026-04-26 12:56 55.38264 -3.93215 11454 ft 350 kts 51°
2026-04-26 12:56 55.39842 -3.89977 10963 ft 348 kts 49°
2026-04-26 12:57 55.41434 -3.86801 10594 ft 341 kts 48°
2026-04-26 12:57 55.42970 -3.83710 10292 ft 333 kts 49°
2026-04-26 12:57 55.44492 -3.80644 9818 ft 331 kts 49°
2026-04-26 12:58 55.47849 -3.75246 8696 ft 329 kts 31°
2026-04-26 12:58 55.49792 -3.73109 8119 ft 327 kts 28°
2026-04-26 12:58 55.51800 -3.71283 7586 ft 323 kts 25°
2026-04-26 12:58 55.53811 -3.69555 7072 ft 320 kts 25°
2026-04-26 12:59 55.55799 -3.67987 6563 ft 315 kts 15°
2026-04-26 12:59 55.57935 -3.67337 6003 ft 310 kts
2026-04-26 12:59 55.60071 -3.66966 5468 ft 307 kts
2026-04-26 12:59 55.62190 -3.66640 4893 ft 304 kts
2026-04-26 13:00 55.64245 -3.66902 4694 ft 288 kts 351°
2026-04-26 13:00 55.66177 -3.67339 4558 ft 271 kts 351°
2026-04-26 13:00 55.67973 -3.68003 4339 ft 258 kts 338°
2026-04-26 13:00 55.69575 -3.69350 4037 ft 252 kts 328°
2026-04-26 13:01 55.71088 -3.70939 4008 ft 253 kts 327°
2026-04-26 13:01 55.72600 -3.72568 4009 ft 254 kts 326°
2026-04-26 13:01 55.74085 -3.74158 4006 ft 241 kts 326°
2026-04-26 13:01 55.75479 -3.75621 4005 ft 225 kts 326°
2026-04-26 13:02 55.76802 -3.77002 4010 ft 223 kts 327°
2026-04-26 13:02 55.78201 -3.78065 4011 ft 214 kts 342°
2026-04-26 13:02 55.79656 -3.78400 4002 ft 211 kts
2026-04-26 13:02 55.81019 -3.77491 4010 ft 212 kts 37°
2026-04-26 13:03 55.81932 -3.75504 4011 ft 203 kts 59°
2026-04-26 13:03 55.82647 -3.73403 4007 ft 196 kts 59°
2026-04-26 13:03 55.83348 -3.71350 4007 ft 193 kts 59°
2026-04-26 13:03 55.84071 -3.69243 4010 ft 208 kts 59°
2026-04-26 13:04 55.84823 -3.67055 3802 ft 207 kts 59°
2026-04-26 13:04 55.85569 -3.64883 3571 ft 204 kts 59°
2026-04-26 13:04 55.86302 -3.62744 3267 ft 200 kts 59°
2026-04-26 13:04 55.87004 -3.60698 2997 ft 188 kts 59°
2026-04-26 13:05 55.87659 -3.58787 2751 ft 174 kts 59°
2026-04-26 13:05 55.88270 -3.57001 2522 ft 163 kts 59°
2026-04-26 13:05 55.88842 -3.55328 2306 ft 153 kts 59°
2026-04-26 13:05 55.89380 -3.53753 2106 ft 146 kts 59°
2026-04-26 13:06 55.89904 -3.52220 1909 ft 143 kts 59°
2026-04-26 13:06 55.90420 -3.50708 1711 ft 142 kts 59°
2026-04-26 13:06 55.90931 -3.49210 1507 ft 141 kts 59°
2026-04-26 13:06 55.91439 -3.47718 1338 ft 140 kts 59°
2026-04-26 13:07 55.91942 -3.46242 1135 ft 139 kts 59°
2026-04-26 13:07 55.92436 -3.44791 946 ft 138 kts 58°
2026-04-26 13:07 55.92933 -3.43332 753 ft 137 kts 58°
2026-04-26 13:07 55.93426 -3.41883 577 ft 136 kts 58°
2026-04-26 13:08 55.93914 -3.40436 385 ft 136 kts 58°
2026-04-26 13:08 55.94409 -3.38995 190 ft 135 kts 58°
2026-04-26 13:08 55.94878 -3.37615 113 ft 116 kts 57°
2026-04-26 13:08 55.95185 -3.36719 113 ft 38 kts 60°
2026-04-26 13:09 55.95226 -3.36398 113 ft 22 kts 134°
2026-04-26 13:09 55.95174 -3.36333 114 ft 0 kts 144°
2026-04-26 13:10 55.95159 -3.36322 116 ft 10 kts 167°
2026-04-26 13:10 55.95101 -3.36377 114 ft 9 kts 235°
2026-04-26 13:10 55.95057 -3.36503 114 ft 21 kts 238°
2026-04-26 13:10 55.94975 -3.36747 115 ft 24 kts 236°
2026-04-26 13:11 55.94877 -3.36791 114 ft 12 kts 168°
2026-04-26 13:11 55.94796 -3.36769 116 ft 11 kts 167°
2026-04-26 13:11 55.94708 -3.36741 116 ft 15 kts 177°
2026-04-26 13:11 55.94654 -3.36676 115 ft 5 kts 88°
2026-04-26 13:12 55.94657 -3.36618 115 ft 0 kts 86°
2026-04-26 13:12 55.94657 -3.36615 115 ft 0 kts 86°